sensor_id;sensor_type;location;lat;lon;timestamp;temperature;humidity
28193;DHT22;15473;50.840;3.396;2022-08-21T00:01:12;16.00;99.90
28193;DHT22;15473;50.840;3.396;2022-08-21T00:03:55;16.00;99.90
28193;DHT22;15473;50.840;3.396;2022-08-21T00:06:25;16.00;99.90
28193;DHT22;15473;50.840;3.396;2022-08-21T00:08:55;16.00;99.90
28193;DHT22;15473;50.840;3.396;2022-08-21T00:11:25;16.00;99.90
28193;DHT22;15473;50.840;3.396;2022-08-21T00:13:56;16.00;99.90
28193;DHT22;15473;50.840;3.396;2022-08-21T00:16:26;15.90;99.90
28193;DHT22;15473;50.840;3.396;2022-08-21T00:18:56;15.90;99.90
28193;DHT22;15473;50.840;3.396;2022-08-21T00:21:27;15.90;99.90
28193;DHT22;15473;50.840;3.396;2022-08-21T00:23:57;15.70;99.90
28193;DHT22;15473;50.840;3.396;2022-08-21T00:26:27;15.60;99.90
28193;DHT22;15473;50.840;3.396;2022-08-21T00:28:57;15.60;99.90
28193;DHT22;15473;50.840;3.396;2022-08-21T00:31:31;15.60;99.90
28193;DHT22;15473;50.840;3.396;2022-08-21T00:34:01;15.60;99.90
28193;DHT22;15473;50.840;3.396;2022-08-21T00:36:32;15.60;99.90
28193;DHT22;15473;50.840;3.396;2022-08-21T00:39:03;15.50;99.90
28193;DHT22;15473;50.840;3.396;2022-08-21T00:41:34;15.50;99.90
28193;DHT22;15473;50.840;3.396;2022-08-21T00:44:09;15.60;99.90
28193;DHT22;15473;50.840;3.396;2022-08-21T00:46:41;15.60;99.90
28193;DHT22;15473;50.840;3.396;2022-08-21T00:49:12;15.70;99.90
28193;DHT22;15473;50.840;3.396;2022-08-21T00:51:48;15.70;99.90
28193;DHT22;15473;50.840;3.396;2022-08-21T00:54:22;15.60;99.90
28193;DHT22;15473;50.840;3.396;2022-08-21T00:56:59;15.70;99.90
28193;DHT22;15473;50.840;3.396;2022-08-21T00:59:30;15.70;99.90
28193;DHT22;15473;50.840;3.396;2022-08-21T01:02:02;15.60;99.90
28193;DHT22;15473;50.840;3.396;2022-08-21T01:04:33;15.70;99.90
28193;DHT22;15473;50.840;3.396;2022-08-21T01:07:04;15.60;99.90
28193;DHT22;15473;50.840;3.396;2022-08-21T01:09:35;15.50;99.90
28193;DHT22;15473;50.840;3.396;2022-08-21T01:12:13;15.60;99.90
28193;DHT22;15473;50.840;3.396;2022-08-21T01:17:36;15.40;99.90
28193;DHT22;15473;50.840;3.396;2022-08-21T01:20:09;15.30;99.90
28193;DHT22;15473;50.840;3.396;2022-08-21T01:22:40;15.30;99.90
28193;DHT22;15473;50.840;3.396;2022-08-21T01:25:13;15.30;99.90
28193;DHT22;15473;50.840;3.396;2022-08-21T01:27:51;15.30;99.90
28193;DHT22;15473;50.840;3.396;2022-08-21T01:30:27;15.20;99.90
28193;DHT22;15473;50.840;3.396;2022-08-21T01:33:19;15.10;99.90
28193;DHT22;15473;50.840;3.396;2022-08-21T01:35:49;15.10;99.90
28193;DHT22;15473;50.840;3.396;2022-08-21T01:38:20;15.10;99.90
28193;DHT22;15473;50.840;3.396;2022-08-21T01:40:50;15.20;99.90
28193;DHT22;15473;50.840;3.396;2022-08-21T01:43:20;15.20;99.90
28193;DHT22;15473;50.840;3.396;2022-08-21T01:45:51;15.10;99.90
28193;DHT22;15473;50.840;3.396;2022-08-21T01:48:28;15.20;99.90
28193;DHT22;15473;50.840;3.396;2022-08-21T01:50:58;15.20;99.90
28193;DHT22;15473;50.840;3.396;2022-08-21T01:53:28;15.10;99.90
28193;DHT22;15473;50.840;3.396;2022-08-21T01:56:00;15.10;99.90
28193;DHT22;15473;50.840;3.396;2022-08-21T01:58:32;15.00;99.90
28193;DHT22;15473;50.840;3.396;2022-08-21T02:01:03;15.00;99.90
28193;DHT22;15473;50.840;3.396;2022-08-21T02:03:34;15.10;99.90
28193;DHT22;15473;50.840;3.396;2022-08-21T02:06:13;15.20;99.90
28193;DHT22;15473;50.840;3.396;2022-08-21T02:08:47;15.20;99.90
28193;DHT22;15473;50.840;3.396;2022-08-21T02:11:19;15.10;99.90
28193;DHT22;15473;50.840;3.396;2022-08-21T02:13:53;15.10;99.90
28193;DHT22;15473;50.840;3.396;2022-08-21T02:16:23;15.00;99.90
28193;DHT22;15473;50.840;3.396;2022-08-21T02:18:55;15.00;99.90
28193;DHT22;15473;50.840;3.396;2022-08-21T02:21:25;15.00;99.90
28193;DHT22;15473;50.840;3.396;2022-08-21T02:24:03;14.90;99.90
28193;DHT22;15473;50.840;3.396;2022-08-21T02:26:33;14.90;99.90
28193;DHT22;15473;50.840;3.396;2022-08-21T02:29:04;14.70;99.90
28193;DHT22;15473;50.840;3.396;2022-08-21T02:31:35;14.70;99.90
28193;DHT22;15473;50.840;3.396;2022-08-21T02:34:05;14.70;99.90
28193;DHT22;15473;50.840;3.396;2022-08-21T02:36:35;14.60;99.90
28193;DHT22;15473;50.840;3.396;2022-08-21T02:39:06;14.60;99.90
28193;DHT22;15473;50.840;3.396;2022-08-21T02:41:36;14.60;99.90
28193;DHT22;15473;50.840;3.396;2022-08-21T02:44:06;14.70;99.90
28193;DHT22;15473;50.840;3.396;2022-08-21T02:46:43;14.80;99.90
28193;DHT22;15473;50.840;3.396;2022-08-21T02:49:16;14.80;99.90
28193;DHT22;15473;50.840;3.396;2022-08-21T02:51:50;14.80;99.90
28193;DHT22;15473;50.840;3.396;2022-08-21T02:54:22;14.80;99.90
28193;DHT22;15473;50.840;3.396;2022-08-21T02:56:52;14.90;99.90
28193;DHT22;15473;50.840;3.396;2022-08-21T02:59:22;14.90;99.90
28193;DHT22;15473;50.840;3.396;2022-08-21T03:01:59;14.90;99.90
28193;DHT22;15473;50.840;3.396;2022-08-21T03:04:36;14.80;99.90
28193;DHT22;15473;50.840;3.396;2022-08-21T03:07:06;14.80;99.90
28193;DHT22;15473;50.840;3.396;2022-08-21T03:09:37;14.80;99.90
28193;DHT22;15473;50.840;3.396;2022-08-21T03:12:07;14.70;99.90
28193;DHT22;15473;50.840;3.396;2022-08-21T03:14:37;14.70;99.90
28193;DHT22;15473;50.840;3.396;2022-08-21T03:17:07;14.70;99.90
28193;DHT22;15473;50.840;3.396;2022-08-21T03:19:41;14.70;99.90
28193;DHT22;15473;50.840;3.396;2022-08-21T03:22:11;14.70;99.90
28193;DHT22;15473;50.840;3.396;2022-08-21T03:24:41;14.70;99.90
28193;DHT22;15473;50.840;3.396;2022-08-21T03:27:13;14.70;99.90
28193;DHT22;15473;50.840;3.396;2022-08-21T03:29:44;14.90;99.90
28193;DHT22;15473;50.840;3.396;2022-08-21T03:32:18;15.00;99.90
28193;DHT22;15473;50.840;3.396;2022-08-21T03:34:55;15.00;99.90
28193;DHT22;15473;50.840;3.396;2022-08-21T03:37:25;14.80;99.90
28193;DHT22;15473;50.840;3.396;2022-08-21T03:39:56;14.80;99.90
28193;DHT22;15473;50.840;3.396;2022-08-21T03:42:26;14.70;99.90
28193;DHT22;15473;50.840;3.396;2022-08-21T03:44:57;14.70;99.90
28193;DHT22;15473;50.840;3.396;2022-08-21T03:47:29;14.70;99.90
28193;DHT22;15473;50.840;3.396;2022-08-21T03:49:59;14.70;99.90
28193;DHT22;15473;50.840;3.396;2022-08-21T03:52:31;14.70;99.90
28193;DHT22;15473;50.840;3.396;2022-08-21T03:55:03;14.80;99.90
28193;DHT22;15473;50.840;3.396;2022-08-21T03:57:39;14.80;99.90
28193;DHT22;15473;50.840;3.396;2022-08-21T04:00:13;14.70;99.90
28193;DHT22;15473;50.840;3.396;2022-08-21T04:02:43;14.60;99.90
28193;DHT22;15473;50.840;3.396;2022-08-21T04:05:15;14.40;99.90
28193;DHT22;15473;50.840;3.396;2022-08-21T04:07:50;14.50;99.90
28193;DHT22;15473;50.840;3.396;2022-08-21T04:10:24;14.50;99.90
28193;DHT22;15473;50.840;3.396;2022-08-21T04:12:55;14.50;99.90
28193;DHT22;15473;50.840;3.396;2022-08-21T04:15:28;14.60;99.90
28193;DHT22;15473;50.840;3.396;2022-08-21T04:17:58;14.70;99.90
28193;DHT22;15473;50.840;3.396;2022-08-21T04:20:28;14.70;99.90
28193;DHT22;15473;50.840;3.396;2022-08-21T04:22:59;14.70;99.90
28193;DHT22;15473;50.840;3.396;2022-08-21T04:25:29;14.70;99.90
28193;DHT22;15473;50.840;3.396;2022-08-21T04:27:59;14.70;99.90
28193;DHT22;15473;50.840;3.396;2022-08-21T04:30:30;14.70;99.90
28193;DHT22;15473;50.840;3.396;2022-08-21T04:33:00;14.70;99.90
28193;DHT22;15473;50.840;3.396;2022-08-21T04:35:32;14.70;99.90
28193;DHT22;15473;50.840;3.396;2022-08-21T04:38:02;14.70;99.90
28193;DHT22;15473;50.840;3.396;2022-08-21T04:40:32;14.60;99.90
28193;DHT22;15473;50.840;3.396;2022-08-21T04:43:06;14.70;99.90
28193;DHT22;15473;50.840;3.396;2022-08-21T04:45:44;14.70;99.90
28193;DHT22;15473;50.840;3.396;2022-08-21T04:48:13;14.70;99.90
28193;DHT22;15473;50.840;3.396;2022-08-21T04:50:54;14.80;99.90
28193;DHT22;15473;50.840;3.396;2022-08-21T04:53:26;14.90;99.90
28193;DHT22;15473;50.840;3.396;2022-08-21T04:55:57;14.90;99.90
28193;DHT22;15473;50.840;3.396;2022-08-21T04:58:29;14.90;99.90
28193;DHT22;15473;50.840;3.396;2022-08-21T05:01:02;15.00;99.90
28193;DHT22;15473;50.840;3.396;2022-08-21T05:03:35;14.90;99.90
28193;DHT22;15473;50.840;3.396;2022-08-21T05:06:08;14.90;99.90
28193;DHT22;15473;50.840;3.396;2022-08-21T05:08:40;15.00;99.90
28193;DHT22;15473;50.840;3.396;2022-08-21T05:11:11;15.00;99.90
28193;DHT22;15473;50.840;3.396;2022-08-21T05:13:42;15.00;99.90
28193;DHT22;15473;50.840;3.396;2022-08-21T05:16:18;15.00;99.90
28193;DHT22;15473;50.840;3.396;2022-08-21T05:18:54;15.10;99.90
28193;DHT22;15473;50.840;3.396;2022-08-21T05:21:27;15.10;99.90
28193;DHT22;15473;50.840;3.396;2022-08-21T05:23:58;15.10;99.90
28193;DHT22;15473;50.840;3.396;2022-08-21T05:26:30;15.10;99.90
28193;DHT22;15473;50.840;3.396;2022-08-21T05:29:15;15.20;99.90
28193;DHT22;15473;50.840;3.396;2022-08-21T05:31:46;15.20;99.90
28193;DHT22;15473;50.840;3.396;2022-08-21T05:34:35;15.20;99.90
28193;DHT22;15473;50.840;3.396;2022-08-21T05:37:06;15.30;99.90
28193;DHT22;15473;50.840;3.396;2022-08-21T05:39:36;15.30;99.90
28193;DHT22;15473;50.840;3.396;2022-08-21T05:42:07;15.40;99.90
28193;DHT22;15473;50.840;3.396;2022-08-21T05:44:41;15.50;99.90
28193;DHT22;15473;50.840;3.396;2022-08-21T05:47:15;15.60;99.90
28193;DHT22;15473;50.840;3.396;2022-08-21T05:49:45;15.70;99.90
28193;DHT22;15473;50.840;3.396;2022-08-21T05:52:20;15.70;99.90
28193;DHT22;15473;50.840;3.396;2022-08-21T05:54:50;15.90;99.90
28193;DHT22;15473;50.840;3.396;2022-08-21T05:57:28;15.90;99.90
28193;DHT22;15473;50.840;3.396;2022-08-21T05:59:58;16.00;99.90
28193;DHT22;15473;50.840;3.396;2022-08-21T06:02:28;16.00;99.90
28193;DHT22;15473;50.840;3.396;2022-08-21T06:05:00;16.10;99.90
28193;DHT22;15473;50.840;3.396;2022-08-21T06:07:30;16.10;99.90
28193;DHT22;15473;50.840;3.396;2022-08-21T06:10:01;16.20;99.90
28193;DHT22;15473;50.840;3.396;2022-08-21T06:12:31;16.30;99.90
28193;DHT22;15473;50.840;3.396;2022-08-21T06:15:02;16.30;99.90
28193;DHT22;15473;50.840;3.396;2022-08-21T06:17:36;16.40;99.90
28193;DHT22;15473;50.840;3.396;2022-08-21T06:20:07;16.50;99.90
28193;DHT22;15473;50.840;3.396;2022-08-21T06:22:37;16.60;99.90
28193;DHT22;15473;50.840;3.396;2022-08-21T06:25:07;16.80;99.90
28193;DHT22;15473;50.840;3.396;2022-08-21T06:27:39;17.00;99.90
28193;DHT22;15473;50.840;3.396;2022-08-21T06:30:10;17.10;99.90
28193;DHT22;15473;50.840;3.396;2022-08-21T06:32:40;17.30;99.90
28193;DHT22;15473;50.840;3.396;2022-08-21T06:35:10;17.60;99.90
28193;DHT22;15473;50.840;3.396;2022-08-21T06:37:40;17.80;99.90
28193;DHT22;15473;50.840;3.396;2022-08-21T06:40:10;18.40;99.90
28193;DHT22;15473;50.840;3.396;2022-08-21T06:42:41;18.80;99.90
28193;DHT22;15473;50.840;3.396;2022-08-21T06:45:11;19.10;99.90
28193;DHT22;15473;50.840;3.396;2022-08-21T06:47:41;19.50;99.90
28193;DHT22;15473;50.840;3.396;2022-08-21T06:50:11;20.10;99.90
28193;DHT22;15473;50.840;3.396;2022-08-21T06:52:47;21.60;99.90
28193;DHT22;15473;50.840;3.396;2022-08-21T06:55:17;23.50;99.90
28193;DHT22;15473;50.840;3.396;2022-08-21T06:57:47;25.40;99.90
28193;DHT22;15473;50.840;3.396;2022-08-21T07:00:18;26.60;99.90
28193;DHT22;15473;50.840;3.396;2022-08-21T07:02:48;26.50;99.90
28193;DHT22;15473;50.840;3.396;2022-08-21T07:05:18;25.20;99.90
28193;DHT22;15473;50.840;3.396;2022-08-21T07:07:48;24.10;99.90
28193;DHT22;15473;50.840;3.396;2022-08-21T07:10:18;23.30;99.90
28193;DHT22;15473;50.840;3.396;2022-08-21T07:12:53;22.60;99.90
28193;DHT22;15473;50.840;3.396;2022-08-21T07:15:24;22.30;99.90
28193;DHT22;15473;50.840;3.396;2022-08-21T07:17:54;22.10;99.90
28193;DHT22;15473;50.840;3.396;2022-08-21T07:20:43;21.80;99.90
28193;DHT22;15473;50.840;3.396;2022-08-21T07:23:22;21.80;99.90
28193;DHT22;15473;50.840;3.396;2022-08-21T07:25:53;21.70;99.90
28193;DHT22;15473;50.840;3.396;2022-08-21T07:28:23;21.60;99.90
28193;DHT22;15473;50.840;3.396;2022-08-21T07:31:00;21.50;99.90
28193;DHT22;15473;50.840;3.396;2022-08-21T07:33:33;21.60;99.90
28193;DHT22;15473;50.840;3.396;2022-08-21T07:36:04;21.80;99.90
28193;DHT22;15473;50.840;3.396;2022-08-21T07:38:35;22.20;99.90
28193;DHT22;15473;50.840;3.396;2022-08-21T07:41:14;22.70;99.90
28193;DHT22;15473;50.840;3.396;2022-08-21T07:44:00;22.90;99.90
28193;DHT22;15473;50.840;3.396;2022-08-21T07:46:30;22.80;99.90
28193;DHT22;15473;50.840;3.396;2022-08-21T07:49:00;22.60;99.90
28193;DHT22;15473;50.840;3.396;2022-08-21T07:51:30;22.40;99.90
28193;DHT22;15473;50.840;3.396;2022-08-21T07:54:02;22.20;99.90
28193;DHT22;15473;50.840;3.396;2022-08-21T07:56:32;22.10;99.90
28193;DHT22;15473;50.840;3.396;2022-08-21T07:59:02;21.90;99.90
28193;DHT22;15473;50.840;3.396;2022-08-21T08:01:34;21.90;99.90
28193;DHT22;15473;50.840;3.396;2022-08-21T08:04:04;21.90;99.90
28193;DHT22;15473;50.840;3.396;2022-08-21T08:06:34;21.80;99.90
28193;DHT22;15473;50.840;3.396;2022-08-21T08:09:04;21.90;99.90
28193;DHT22;15473;50.840;3.396;2022-08-21T08:11:36;21.90;99.90
28193;DHT22;15473;50.840;3.396;2022-08-21T08:14:07;21.90;99.90
28193;DHT22;15473;50.840;3.396;2022-08-21T08:16:37;21.70;99.90
28193;DHT22;15473;50.840;3.396;2022-08-21T08:19:09;21.70;99.90
28193;DHT22;15473;50.840;3.396;2022-08-21T08:21:39;21.70;99.90
28193;DHT22;15473;50.840;3.396;2022-08-21T08:24:09;21.60;99.90
28193;DHT22;15473;50.840;3.396;2022-08-21T08:26:39;21.60;99.90
28193;DHT22;15473;50.840;3.396;2022-08-21T08:29:29;21.60;99.90
28193;DHT22;15473;50.840;3.396;2022-08-21T08:31:59;21.60;99.90
28193;DHT22;15473;50.840;3.396;2022-08-21T08:34:29;21.70;99.90
28193;DHT22;15473;50.840;3.396;2022-08-21T08:37:00;21.80;99.90
28193;DHT22;15473;50.840;3.396;2022-08-21T08:39:30;21.80;99.90
28193;DHT22;15473;50.840;3.396;2022-08-21T08:42:06;22.10;99.90
28193;DHT22;15473;50.840;3.396;2022-08-21T08:44:38;22.40;99.90
28193;DHT22;15473;50.840;3.396;2022-08-21T08:47:14;22.50;99.90
28193;DHT22;15473;50.840;3.396;2022-08-21T08:52:48;22.40;99.90
28193;DHT22;15473;50.840;3.396;2022-08-21T08:55:40;22.40;99.90
28193;DHT22;15473;50.840;3.396;2022-08-21T08:58:24;22.40;99.90
28193;DHT22;15473;50.840;3.396;2022-08-21T09:00:51;22.60;99.90
28193;DHT22;15473;50.840;3.396;2022-08-21T09:03:23;22.80;99.90
28193;DHT22;15473;50.840;3.396;2022-08-21T09:05:58;23.00;99.90
28193;DHT22;15473;50.840;3.396;2022-08-21T09:11:32;22.90;99.90
28193;DHT22;15473;50.840;3.396;2022-08-21T09:16:51;22.60;99.90
28193;DHT22;15473;50.840;3.396;2022-08-21T09:22:50;23.00;99.90
28193;DHT22;15473;50.840;3.396;2022-08-21T09:25:28;23.20;99.90
28193;DHT22;15473;50.840;3.396;2022-08-21T09:27:59;23.20;99.90
28193;DHT22;15473;50.840;3.396;2022-08-21T09:30:32;23.30;99.90
28193;DHT22;15473;50.840;3.396;2022-08-21T09:33:03;23.20;99.90
28193;DHT22;15473;50.840;3.396;2022-08-21T09:35:33;23.30;99.90
28193;DHT22;15473;50.840;3.396;2022-08-21T09:38:07;23.40;99.90
28193;DHT22;15473;50.840;3.396;2022-08-21T09:40:44;23.50;99.90
28193;DHT22;15473;50.840;3.396;2022-08-21T09:46:21;23.40;99.90
28193;DHT22;15473;50.840;3.396;2022-08-21T09:48:47;23.30;99.90
28193;DHT22;15473;50.840;3.396;2022-08-21T09:51:31;23.20;99.90
28193;DHT22;15473;50.840;3.396;2022-08-21T09:54:17;23.20;99.90
28193;DHT22;15473;50.840;3.396;2022-08-21T09:56:59;23.20;99.90
28193;DHT22;15473;50.840;3.396;2022-08-21T09:59:46;23.20;99.90
28193;DHT22;15473;50.840;3.396;2022-08-21T10:02:28;23.40;99.90
28193;DHT22;15473;50.840;3.396;2022-08-21T10:05:01;23.60;99.90
28193;DHT22;15473;50.840;3.396;2022-08-21T10:07:32;23.80;99.90
28193;DHT22;15473;50.840;3.396;2022-08-21T10:10:23;23.90;99.90
28193;DHT22;15473;50.840;3.396;2022-08-21T10:13:03;23.80;99.90
28193;DHT22;15473;50.840;3.396;2022-08-21T10:19:32;23.50;99.90
28193;DHT22;15473;50.840;3.396;2022-08-21T10:21:41;23.20;99.90
28193;DHT22;15473;50.840;3.396;2022-08-21T10:24:29;23.10;99.90
28193;DHT22;15473;50.840;3.396;2022-08-21T10:27:15;23.10;99.90
28193;DHT22;15473;50.840;3.396;2022-08-21T10:30:07;23.00;99.90
28193;DHT22;15473;50.840;3.396;2022-08-21T10:33:46;23.00;99.90
28193;DHT22;15473;50.840;3.396;2022-08-21T10:35:33;23.00;99.90
28193;DHT22;15473;50.840;3.396;2022-08-21T10:43:52;23.60;99.90
28193;DHT22;15473;50.840;3.396;2022-08-21T10:52:13;24.10;99.90
28193;DHT22;15473;50.840;3.396;2022-08-21T11:00:22;24.10;99.90
28193;DHT22;15473;50.840;3.396;2022-08-21T11:05:52;24.20;99.90
28193;DHT22;15473;50.840;3.396;2022-08-21T11:08:25;24.10;99.90
28193;DHT22;15473;50.840;3.396;2022-08-21T11:11:23;23.90;99.90
28193;DHT22;15473;50.840;3.396;2022-08-21T11:13:55;23.90;99.90
28193;DHT22;15473;50.840;3.396;2022-08-21T11:22:04;24.30;99.90
28193;DHT22;15473;50.840;3.396;2022-08-21T11:24:28;24.50;99.90
28193;DHT22;15473;50.840;3.396;2022-08-21T11:27:21;24.50;99.90
28193;DHT22;15473;50.840;3.396;2022-08-21T11:29:59;24.40;99.90
28193;DHT22;15473;50.840;3.396;2022-08-21T11:35:48;24.20;99.90
28193;DHT22;15473;50.840;3.396;2022-08-21T11:38:35;24.00;99.90
28193;DHT22;15473;50.840;3.396;2022-08-21T11:41:28;23.80;99.90
28193;DHT22;15473;50.840;3.396;2022-08-21T11:44:10;23.70;99.90
28193;DHT22;15473;50.840;3.396;2022-08-21T11:52:28;23.90;99.90
28193;DHT22;15473;50.840;3.396;2022-08-21T12:00:38;24.60;99.90
28193;DHT22;15473;50.840;3.396;2022-08-21T12:03:14;24.70;99.90
28193;DHT22;15473;50.840;3.396;2022-08-21T12:05:58;24.70;99.90
28193;DHT22;15473;50.840;3.396;2022-08-21T12:08:30;24.90;99.90
28193;DHT22;15473;50.840;3.396;2022-08-21T12:13:52;25.40;99.90
28193;DHT22;15473;50.840;3.396;2022-08-21T12:16:16;25.60;99.90
28193;DHT22;15473;50.840;3.396;2022-08-21T12:18:46;25.60;99.90
28193;DHT22;15473;50.840;3.396;2022-08-21T12:21:29;25.70;99.90
28193;DHT22;15473;50.840;3.396;2022-08-21T12:24:05;25.70;99.90
28193;DHT22;15473;50.840;3.396;2022-08-21T12:27:00;25.80;99.90
28193;DHT22;15473;50.840;3.396;2022-08-21T12:29:12;26.10;99.90
28193;DHT22;15473;50.840;3.396;2022-08-21T12:31:50;26.30;99.90
28193;DHT22;15473;50.840;3.396;2022-08-21T12:34:23;26.40;99.90
28193;DHT22;15473;50.840;3.396;2022-08-21T12:37:02;26.40;99.90
28193;DHT22;15473;50.840;3.396;2022-08-21T12:39:29;26.30;99.90
28193;DHT22;15473;50.840;3.396;2022-08-21T12:42:07;26.10;99.90
28193;DHT22;15473;50.840;3.396;2022-08-21T12:44:44;25.90;99.90
28193;DHT22;15473;50.840;3.396;2022-08-21T12:47:17;25.60;99.90
28193;DHT22;15473;50.840;3.396;2022-08-21T12:50:00;25.50;99.90
28193;DHT22;15473;50.840;3.396;2022-08-21T12:52:33;25.50;99.90
28193;DHT22;15473;50.840;3.396;2022-08-21T12:55:02;25.50;99.90
28193;DHT22;15473;50.840;3.396;2022-08-21T12:57:35;25.40;99.90
28193;DHT22;15473;50.840;3.396;2022-08-21T13:00:06;25.40;99.90
28193;DHT22;15473;50.840;3.396;2022-08-21T13:02:45;25.40;99.90
28193;DHT22;15473;50.840;3.396;2022-08-21T13:05:26;25.30;99.90
28193;DHT22;15473;50.840;3.396;2022-08-21T13:07:48;25.10;99.90
28193;DHT22;15473;50.840;3.396;2022-08-21T13:10:24;25.00;99.90
28193;DHT22;15473;50.840;3.396;2022-08-21T13:12:57;24.90;99.90
28193;DHT22;15473;50.840;3.396;2022-08-21T13:15:32;24.90;99.90
28193;DHT22;15473;50.840;3.396;2022-08-21T13:18:03;24.90;99.90
28193;DHT22;15473;50.840;3.396;2022-08-21T13:20:37;24.90;99.90
28193;DHT22;15473;50.840;3.396;2022-08-21T13:23:30;24.90;99.90
28193;DHT22;15473;50.840;3.396;2022-08-21T13:26:00;25.00;99.90
28193;DHT22;15473;50.840;3.396;2022-08-21T13:28:34;25.20;99.90
28193;DHT22;15473;50.840;3.396;2022-08-21T13:31:09;25.40;99.90
28193;DHT22;15473;50.840;3.396;2022-08-21T13:33:41;25.40;99.90
28193;DHT22;15473;50.840;3.396;2022-08-21T13:36:20;25.50;99.90
28193;DHT22;15473;50.840;3.396;2022-08-21T13:38:51;25.40;99.90
28193;DHT22;15473;50.840;3.396;2022-08-21T13:41:31;25.40;99.90
28193;DHT22;15473;50.840;3.396;2022-08-21T13:44:05;25.40;99.90
28193;DHT22;15473;50.840;3.396;2022-08-21T13:46:38;25.30;99.90
28193;DHT22;15473;50.840;3.396;2022-08-21T13:49:09;25.20;99.90
28193;DHT22;15473;50.840;3.396;2022-08-21T13:51:46;25.20;99.90
28193;DHT22;15473;50.840;3.396;2022-08-21T13:54:36;25.20;99.90
28193;DHT22;15473;50.840;3.396;2022-08-21T13:57:00;25.10;99.90
28193;DHT22;15473;50.840;3.396;2022-08-21T13:59:36;25.00;99.90
28193;DHT22;15473;50.840;3.396;2022-08-21T14:02:18;24.90;99.90
28193;DHT22;15473;50.840;3.396;2022-08-21T14:05:01;24.80;99.90
28193;DHT22;15473;50.840;3.396;2022-08-21T14:07:35;24.70;99.90
28193;DHT22;15473;50.840;3.396;2022-08-21T14:10:17;24.70;99.90
28193;DHT22;15473;50.840;3.396;2022-08-21T14:12:55;24.60;99.90
28193;DHT22;15473;50.840;3.396;2022-08-21T14:15:29;24.40;99.90
28193;DHT22;15473;50.840;3.396;2022-08-21T14:21:07;24.40;99.90
28193;DHT22;15473;50.840;3.396;2022-08-21T14:23:38;24.40;99.90
28193;DHT22;15473;50.840;3.396;2022-08-21T14:26:09;24.50;99.90
28193;DHT22;15473;50.840;3.396;2022-08-21T14:28:40;24.60;99.90
28193;DHT22;15473;50.840;3.396;2022-08-21T14:31:20;24.70;99.90
28193;DHT22;15473;50.840;3.396;2022-08-21T14:33:46;24.80;99.90
28193;DHT22;15473;50.840;3.396;2022-08-21T14:36:16;24.90;99.90
28193;DHT22;15473;50.840;3.396;2022-08-21T14:38:46;25.00;99.90
28193;DHT22;15473;50.840;3.396;2022-08-21T14:41:18;25.10;99.90
28193;DHT22;15473;50.840;3.396;2022-08-21T14:43:50;25.20;99.90
28193;DHT22;15473;50.840;3.396;2022-08-21T14:46:25;25.30;99.90
28193;DHT22;15473;50.840;3.396;2022-08-21T14:48:55;25.50;99.90
28193;DHT22;15473;50.840;3.396;2022-08-21T14:51:26;25.60;99.90
28193;DHT22;15473;50.840;3.396;2022-08-21T14:53:56;25.70;99.90
28193;DHT22;15473;50.840;3.396;2022-08-21T14:56:26;25.80;99.90
28193;DHT22;15473;50.840;3.396;2022-08-21T14:58:59;25.90;99.90
28193;DHT22;15473;50.840;3.396;2022-08-21T15:01:29;25.90;99.90
28193;DHT22;15473;50.840;3.396;2022-08-21T15:03:59;25.90;99.90
28193;DHT22;15473;50.840;3.396;2022-08-21T15:06:29;25.80;99.90
28193;DHT22;15473;50.840;3.396;2022-08-21T15:09:00;25.70;99.90
28193;DHT22;15473;50.840;3.396;2022-08-21T15:11:32;25.70;99.90
28193;DHT22;15473;50.840;3.396;2022-08-21T15:14:06;25.70;99.90
28193;DHT22;15473;50.840;3.396;2022-08-21T15:16:36;25.70;99.90
28193;DHT22;15473;50.840;3.396;2022-08-21T15:19:08;25.70;99.90
28193;DHT22;15473;50.840;3.396;2022-08-21T15:21:38;25.50;99.90
28193;DHT22;15473;50.840;3.396;2022-08-21T15:24:09;25.40;99.90
28193;DHT22;15473;50.840;3.396;2022-08-21T15:26:43;25.20;99.90
28193;DHT22;15473;50.840;3.396;2022-08-21T15:29:14;25.10;99.90
28193;DHT22;15473;50.840;3.396;2022-08-21T15:31:57;24.90;99.90
28193;DHT22;15473;50.840;3.396;2022-08-21T15:34:29;24.90;99.90
28193;DHT22;15473;50.840;3.396;2022-08-21T15:36:59;24.70;99.90
28193;DHT22;15473;50.840;3.396;2022-08-21T15:39:29;24.60;99.90
28193;DHT22;15473;50.840;3.396;2022-08-21T15:42:00;24.70;99.90
28193;DHT22;15473;50.840;3.396;2022-08-21T15:44:31;24.80;99.90
28193;DHT22;15473;50.840;3.396;2022-08-21T15:47:01;25.00;99.90
28193;DHT22;15473;50.840;3.396;2022-08-21T15:49:31;25.20;99.90
28193;DHT22;15473;50.840;3.396;2022-08-21T15:52:01;25.20;99.90
28193;DHT22;15473;50.840;3.396;2022-08-21T15:54:31;25.00;99.90
28193;DHT22;15473;50.840;3.396;2022-08-21T15:57:01;24.80;99.90
28193;DHT22;15473;50.840;3.396;2022-08-21T15:59:37;24.50;99.90
28193;DHT22;15473;50.840;3.396;2022-08-21T16:02:05;24.30;99.90
28193;DHT22;15473;50.840;3.396;2022-08-21T16:04:36;24.20;99.90
28193;DHT22;15473;50.840;3.396;2022-08-21T16:07:08;24.00;99.90
28193;DHT22;15473;50.840;3.396;2022-08-21T16:09:38;23.90;99.90
28193;DHT22;15473;50.840;3.396;2022-08-21T16:12:21;23.80;99.90
28193;DHT22;15473;50.840;3.396;2022-08-21T16:14:46;23.70;99.90
28193;DHT22;15473;50.840;3.396;2022-08-21T16:17:16;23.70;99.90
28193;DHT22;15473;50.840;3.396;2022-08-21T16:19:46;23.70;99.90
28193;DHT22;15473;50.840;3.396;2022-08-21T16:22:16;23.80;99.90
28193;DHT22;15473;50.840;3.396;2022-08-21T16:24:46;23.80;99.90
28193;DHT22;15473;50.840;3.396;2022-08-21T16:27:17;23.90;99.90
28193;DHT22;15473;50.840;3.396;2022-08-21T16:29:47;23.80;99.90
28193;DHT22;15473;50.840;3.396;2022-08-21T16:32:17;23.80;99.90
28193;DHT22;15473;50.840;3.396;2022-08-21T16:34:49;23.80;99.90
28193;DHT22;15473;50.840;3.396;2022-08-21T16:37:19;23.80;99.90
28193;DHT22;15473;50.840;3.396;2022-08-21T16:39:50;23.80;99.90
28193;DHT22;15473;50.840;3.396;2022-08-21T16:42:23;23.70;99.90
28193;DHT22;15473;50.840;3.396;2022-08-21T16:44:54;23.70;99.90
28193;DHT22;15473;50.840;3.396;2022-08-21T16:47:25;23.70;99.90
28193;DHT22;15473;50.840;3.396;2022-08-21T16:49:56;23.60;99.90
28193;DHT22;15473;50.840;3.396;2022-08-21T16:52:27;23.60;99.90
28193;DHT22;15473;50.840;3.396;2022-08-21T16:54:57;23.50;99.90
28193;DHT22;15473;50.840;3.396;2022-08-21T16:57:47;23.50;99.90
28193;DHT22;15473;50.840;3.396;2022-08-21T17:00:18;23.40;99.90
28193;DHT22;15473;50.840;3.396;2022-08-21T17:05:39;23.30;99.90
28193;DHT22;15473;50.840;3.396;2022-08-21T17:08:09;23.30;99.90
28193;DHT22;15473;50.840;3.396;2022-08-21T17:10:47;23.20;99.90
28193;DHT22;15473;50.840;3.396;2022-08-21T17:13:19;23.10;99.90
28193;DHT22;15473;50.840;3.396;2022-08-21T17:15:51;23.00;99.90
28193;DHT22;15473;50.840;3.396;2022-08-21T17:18:23;23.00;99.90